AirNav   Air Wisconsin Up To $57,000 Bonus
 
 1109 users online  

MU90 Falcon Heliport
Lee's Summit, Missouri, USA

GOING TO LEE'S SUMMIT?


FAA INFORMATION EFFECTIVE 02 JANUARY 2020

Location

FAA Identifier: MU90
Lat/Long: 38-57-25.0240N 094-22-35.8210W
38-57.417067N 094-22.597017W
38.9569511,-94.3766169
(estimated)
Elevation: 971 ft. / 296 m (estimated)
Variation: 05E (1990)
From city: 3 miles N of LEES SUMMIT, MO
Time zone: UTC -6 (UTC -5 during Daylight Saving Time)
Zip code: 64064

Heliport Operations

Heliport use: Private use. Permission required prior to landing
Activation date: 10/1991
Control tower: no
ARTCC: KANSAS CITY CENTER
FSS: COLUMBIA FLIGHT SERVICE STATION
Attendance: MON-FRI 0830-1700
Segmented circle: no
Lights: FOR PERIMETER LGTS CALL 816-525-5722.

Heliport Communications

WX ASOS at LXT (0.3 nm NE): 124.175 (816-347-9807)
WX ASOS at MKC (14 nm NW): PHONE 816-329-2843
WX ASOS at OJC (18 nm W): PHONE 913-780-6969

Nearby radio navigation aids

VOR radial/distance  VOR name  Freq  Var
ANXr227/14.2NAPOLEON VORTAC114.0007E
MCIr135/25.9KANSAS CITY VORTAC113.2505E

Heliport Services

Runway Information

Helipad H1

Dimensions: 80 x 70 ft. / 24 x 21 m
Surface: concrete
Runway edge lights: PERI
Latitude: 38-57.417067N
Longitude: 094-22.597017W
Elevation: 971.0 ft.
Traffic pattern: leftleft

Heliport Ownership and Management from official FAA records

Ownership: Privately-owned
Owner: FALCON HELICOPTER INC
2451 N E DOUGLAS
LEE SUMMIT, MO 64064
Phone 816-525-5723
Manager: BOB SCHLOTZHAUER
12907 MEADOWLARK
LEE SUMMIT, MO 64063
Phone 816-525-5722

Additional Remarks

FOR CD CTC KANSAS CITY APCH AT 816-329-2710.

Instrument Procedures

There are no published instrument procedures at MU90.

Some nearby airports with instrument procedures:

KLXT - Lee's Summit Municipal Airport (0 nm NE)
3GV - East Kansas City Airport (8 nm NE)
KMKC - Charles B Wheeler Downtown Airport (14 nm NW)
KOJC - Johnson County Executive Airport (18 nm W)
KLRY - Lawrence Smith Memorial Airport (21 nm S)
 
Loc | Ops | Rwys | IFR | FBO | Links
Com | Nav | Svcs | Stats | Notes

Kansas City Aviation Department
 
Area around MU90 (Falcon Heliport)
 
Road maps at: MapQuest Bing Google
 
Aerial photo
No photo
 
Sectional chart

 
Airport distance calculator
Flying to Falcon Heliport? Find the distance to fly.

From to MU90

Sunrise and sunset
Times for 21-Jan-2020
 Local
(UTC-6)
 Zulu
(UTC)
Morning civil twilight07:0413:04
Sunrise07:3313:33
Sunset17:2523:25
Evening civil twilight17:5423:54

Current date and time
Zulu (UTC)  22-Jan-2020 00:54:43
Local (UTC-6)  21-Jan-2020 18:54:43
 
METAR
KLXT 212353Z AUTO 15011KT 10SM CLR M01/M07 A3031 RMK AO2 SLP278 T10111072 11006 21067 56029
KMKC 
14nm NW 
212354Z 13008KT 10SM CLR M01/M07 A3030 RMK AO2 SLP270 T10061072 11006 21056 58034
KOJC 
18nm W 
212353Z 15011KT 10SM CLR M02/M06 A3029 RMK AO2 SLP272 T10221061 11017 21072 58027
TAF
KMKC 
14nm NW 
211831Z 2119/2218 17012KT P6SM SCT250 FM220000 18012KT P6SM BKN200 FM220400 18012KT P6SM SCT030 BKN150 WS020/21045KT FM221100 18012G18KT 6SM -SN BKN012
NOTAMs
Click for the latest NOTAMs
NOTAMs are issued by the DoD/FAA and will open in a separate window not controlled by AirNav.

 

 
 

Would you like to see your business listed on this page?

 If your business provides an interesting product or service to pilots, flight crews, aircraft, or users of the Falcon Heliport, you should consider listing it here.  To start the listing process, click on the button below
 
Add a business
 

Other Pages about Falcon Heliport

Update a link
 
Copyright © AirNav, LLC. All rights reserved. Privacy Policy  Contact